createdAt,value
2023-01-01T00:00:19.183Z,5.57
2023-01-01T00:03:20.986Z,16.30
2023-01-01T00:06:23.015Z,16.35
2023-01-01T00:09:42.918Z,7.97
2023-01-01T00:12:44.513Z,12.35
2023-01-01T00:15:46.066Z,17.08
2023-01-01T00:18:47.620Z,16.13
2023-01-01T00:21:49.265Z,19.02
2023-01-01T00:24:50.907Z,18.45
2023-01-01T00:27:52.583Z,19.95
2023-01-01T00:30:54.228Z,17.92
2023-01-01T00:33:56.717Z,14.13
2023-01-01T00:36:58.305Z,15.15
2023-01-01T00:39:59.860Z,17.20
2023-01-01T00:43:01.418Z,16.33
2023-01-01T00:46:04.905Z,24.60
2023-01-01T00:49:06.570Z,11.00
2023-01-01T00:52:08.273Z,21.00
2023-01-01T00:55:10.593Z,15.60
2023-01-01T00:58:12.572Z,10.98
2023-01-01T01:01:14.389Z,14.10
2023-01-01T01:04:16.020Z,11.02
2023-01-01T01:07:17.571Z,9.45
2023-01-01T01:10:21.566Z,9.10
2023-01-01T01:16:34.442Z,8.30
2023-01-01T01:19:36.028Z,7.45
2023-01-01T01:22:37.704Z,7.15
2023-01-01T01:25:39.308Z,7.25
2023-01-01T01:28:47.082Z,5.97
2023-01-01T01:31:51.342Z,6.25
2023-01-01T01:34:52.878Z,5.82
2023-01-01T01:37:54.425Z,6.07
2023-01-01T01:40:56.071Z,5.43
2023-01-01T01:44:01.689Z,4.50
2023-01-01T01:47:03.338Z,4.10
2023-01-01T01:50:09.192Z,3.08
2023-01-01T01:53:16.329Z,2.55
2023-01-01T01:56:24.169Z,2.67
2023-01-01T01:59:30.075Z,2.67
2023-01-01T02:02:38.728Z,3.60
2023-01-01T02:05:41.491Z,2.95
2023-01-01T02:08:43.099Z,3.40
2023-01-01T02:11:44.712Z,2.90
2023-01-01T02:14:46.341Z,2.83
2023-01-01T02:18:01.109Z,2.78
2023-01-01T02:21:11.475Z,3.03
2023-01-01T02:24:29.146Z,3.53
2023-01-01T02:27:59.076Z,3.55
2023-01-01T02:31:02.149Z,3.72
2023-01-01T02:34:09.341Z,3.97
2023-01-01T02:37:14.507Z,4.00
2023-01-01T02:40:19.343Z,4.18
2023-01-01T02:43:24.748Z,3.83
2023-01-01T02:46:34.855Z,7.30
2023-01-01T02:49:41.509Z,4.45
2023-01-01T02:52:50.272Z,4.38
2023-01-01T02:55:54.648Z,4.32
2023-01-01T02:59:34.433Z,5.25
2023-01-01T03:03:05.558Z,4.30
2023-01-01T03:06:24.856Z,4.35
2023-01-01T03:09:50.746Z,4.13
2023-01-01T03:13:03.393Z,3.95
2023-01-01T03:16:20.076Z,4.28
2023-01-01T03:19:29.047Z,3.90
2023-01-01T03:25:47.508Z,4.03
2023-01-01T03:28:57.556Z,3.72
2023-01-01T03:32:01.877Z,3.95
2023-01-01T03:35:04.046Z,4.10
2023-01-01T03:38:10.958Z,4.30
2023-01-01T03:41:22.495Z,4.05
2023-01-01T03:44:35.386Z,4.30
2023-01-01T03:47:37.608Z,3.83
2023-01-01T03:51:01.319Z,4.10
2023-01-01T03:54:35.832Z,3.78
2023-01-01T03:58:09.846Z,3.63
2023-01-01T04:01:18.214Z,4.17
2023-01-01T04:04:20.446Z,3.92
2023-01-01T04:07:23.268Z,4.03
2023-01-01T04:10:25.920Z,3.72
2023-01-01T04:13:27.534Z,4.20
2023-01-01T04:16:29.143Z,4.25
2023-01-01T04:19:31.057Z,3.70
2023-01-01T04:22:32.615Z,3.50
2023-01-01T04:25:34.352Z,3.50
2023-01-01T04:28:36.067Z,3.33
2023-01-01T04:31:38.327Z,3.70
2023-01-01T04:34:40.223Z,3.45
2023-01-01T04:37:43.901Z,3.45
2023-01-01T04:40:45.627Z,4.03
2023-01-01T04:43:50.833Z,3.70
2023-01-01T04:46:56.901Z,4.03
2023-01-01T04:50:01.606Z,3.75
2023-01-01T04:53:03.117Z,3.28
2023-01-01T04:56:05.438Z,3.45
2023-01-01T04:59:07.092Z,3.30
2023-01-01T05:02:08.750Z,2.92
2023-01-01T05:05:13.475Z,2.58
2023-01-01T05:08:14.971Z,3.17
2023-01-01T05:11:19.749Z,2.38
2023-01-01T05:14:21.444Z,2.72
2023-01-01T05:17:23.073Z,2.40
2023-01-01T05:20:25.079Z,2.78
2023-01-01T05:23:26.730Z,2.40
2023-01-01T05:26:31.864Z,2.80
2023-01-01T05:29:33.422Z,2.42
2023-01-01T05:32:37.338Z,2.42
2023-01-01T05:35:39.150Z,2.33
2023-01-01T05:38:40.760Z,3.15
2023-01-01T05:41:42.371Z,2.90
2023-01-01T05:44:43.963Z,2.38
2023-01-01T05:47:45.496Z,2.53
2023-01-01T05:50:47.052Z,1.80
2023-01-01T05:53:48.875Z,2.47
2023-01-01T05:56:50.466Z,2.72
2023-01-01T05:59:51.995Z,2.60
2023-01-01T06:02:54.953Z,2.60
2023-01-01T06:05:56.668Z,2.33
2023-01-01T06:09:00.399Z,2.72
2023-01-01T06:12:01.938Z,2.72
2023-01-01T06:15:03.713Z,2.83
2023-01-01T06:18:05.338Z,2.47
2023-01-01T06:21:12.387Z,2.42
2023-01-01T06:24:14.077Z,2.80
2023-01-01T06:27:15.656Z,1.98
2023-01-01T06:30:17.375Z,2.83
2023-01-01T06:33:18.922Z,2.47
2023-01-01T06:36:23.119Z,2.83
2023-01-01T06:39:24.633Z,2.97
2023-01-01T06:42:30.471Z,3.10
2023-01-01T06:45:35.233Z,2.90
2023-01-01T06:48:37.696Z,3.38
2023-01-01T06:51:43.871Z,3.00
2023-01-01T06:54:45.400Z,3.15
2023-01-01T06:57:47.083Z,2.88
2023-01-01T07:00:48.695Z,3.35
2023-01-01T07:03:54.811Z,3.63
2023-01-01T07:06:56.423Z,2.97
2023-01-01T07:09:58.009Z,2.85
2023-01-01T07:13:00.822Z,3.17
2023-01-01T07:16:08.374Z,3.17
2023-01-01T07:19:13.874Z,3.72
2023-01-01T07:22:15.486Z,3.78
2023-01-01T07:25:17.204Z,2.90
2023-01-01T07:28:20.215Z,3.22
2023-01-01T07:31:21.814Z,3.50
2023-01-01T07:34:23.930Z,3.90
2023-01-01T07:37:26.357Z,3.35
2023-01-01T07:40:27.882Z,2.88
2023-01-01T07:43:29.477Z,3.15
2023-01-01T07:46:31.385Z,3.42
2023-01-01T07:49:33.067Z,3.75
2023-01-01T07:52:34.569Z,3.65
2023-01-01T07:55:36.135Z,4.35
2023-01-01T07:58:41.647Z,4.00
2023-01-01T08:01:43.263Z,3.95
2023-01-01T08:04:44.896Z,3.80
2023-01-01T08:07:48.384Z,4.00
2023-01-01T08:10:50.043Z,4.10
2023-01-01T08:13:51.544Z,4.70
2023-01-01T08:16:53.054Z,4.68
2023-01-01T08:19:54.641Z,4.22
2023-01-01T08:23:00.150Z,4.47
2023-01-01T08:26:04.720Z,5.07
2023-01-01T08:29:07.119Z,4.45
2023-01-01T08:32:12.582Z,5.07
2023-01-01T08:35:14.145Z,4.20
2023-01-01T08:38:15.647Z,4.72
2023-01-01T08:41:17.148Z,5.10
2023-01-01T08:44:19.651Z,4.75
2023-01-01T08:47:26.186Z,4.97
2023-01-01T08:50:27.780Z,4.28
2023-01-01T08:53:30.993Z,4.80
2023-01-01T08:56:32.652Z,4.75
2023-01-01T08:59:34.294Z,4.63
2023-01-01T09:02:36.045Z,3.95
2023-01-01T09:05:37.919Z,4.95
2023-01-01T09:08:40.766Z,4.22
2023-01-01T09:11:57.246Z,4.07
2023-01-01T09:14:58.862Z,4.60
2023-01-01T09:18:00.414Z,5.68
2023-01-01T09:21:02.019Z,4.90
2023-01-01T09:24:03.903Z,5.18
2023-01-01T09:27:05.812Z,4.63
2023-01-01T09:30:08.408Z,4.72
2023-01-01T09:33:10.051Z,4.28
2023-01-01T09:36:32.589Z,4.68
2023-01-01T09:39:34.110Z,5.05
2023-01-01T09:42:43.587Z,5.63
2023-01-01T09:46:01.563Z,6.75
2023-01-01T09:49:13.265Z,7.97
2023-01-01T09:52:16.338Z,7.55
2023-01-01T09:55:27.429Z,7.80
2023-01-01T09:58:38.047Z,10.98
2023-01-01T10:02:04.865Z,8.40
2023-01-01T10:05:25.075Z,6.13
2023-01-01T10:08:41.683Z,5.32
2023-01-01T10:11:53.186Z,5.07
2023-01-01T10:15:04.253Z,5.05
2023-01-01T10:18:17.627Z,5.82
2023-01-01T10:21:26.179Z,4.93
2023-01-01T10:24:40.924Z,4.55
2023-01-01T10:27:57.129Z,4.40
2023-01-01T10:31:32.790Z,4.82
2023-01-01T10:34:34.438Z,3.67
2023-01-01T10:37:42.262Z,5.03
2023-01-01T10:40:44.482Z,3.92
2023-01-01T10:43:47.687Z,4.53
2023-01-01T10:46:56.990Z,4.63
2023-01-01T10:50:07.646Z,4.50
2023-01-01T10:53:22.102Z,4.03
2023-01-01T10:56:24.967Z,4.30
2023-01-01T10:59:38.200Z,3.97
2023-01-01T11:02:39.844Z,3.80
2023-01-01T11:06:01.169Z,3.53
2023-01-01T11:09:19.291Z,4.00
2023-01-01T11:13:03.556Z,3.97
2023-01-01T11:15:56.372Z,4.32
2023-01-01T11:19:04.344Z,4.15
2023-01-01T11:22:06.919Z,3.90
2023-01-01T11:25:23.755Z,3.72
2023-01-01T11:28:26.105Z,3.50
2023-01-01T11:31:34.264Z,4.50
2023-01-01T11:34:43.255Z,4.00
2023-01-01T11:37:45.991Z,4.15
2023-01-01T11:40:51.655Z,3.67
2023-01-01T11:43:55.474Z,3.20
2023-01-01T11:46:58.077Z,3.80
2023-01-01T11:50:17.686Z,3.72
2023-01-01T11:53:29.483Z,4.57
2023-01-01T11:56:38.024Z,3.85
2023-01-01T11:59:51.758Z,3.28
2023-01-01T12:03:01.499Z,3.55
2023-01-01T12:06:19.252Z,4.10
2023-01-01T12:09:48.045Z,3.67
2023-01-01T12:13:02.258Z,3.60
2023-01-01T12:16:13.495Z,3.40
2023-01-01T12:19:30.978Z,3.75
2023-01-01T12:22:32.818Z,3.88
2023-01-01T12:25:47.170Z,3.65
2023-01-01T12:29:03.678Z,5.70
2023-01-01T12:32:26.753Z,7.13
2023-01-01T12:35:49.741Z,5.05
2023-01-01T12:38:51.198Z,3.70
2023-01-01T12:42:10.365Z,3.53
2023-01-01T12:45:30.484Z,3.78
2023-01-01T12:48:51.617Z,3.35
2023-01-01T12:52:02.680Z,3.60
2023-01-01T12:55:33.514Z,3.28
2023-01-01T12:58:43.368Z,3.13
2023-01-01T13:01:46.061Z,4.10
2023-01-01T13:04:52.988Z,3.80
2023-01-01T13:08:00.242Z,3.85
2023-01-01T13:11:03.168Z,3.97
2023-01-01T13:14:04.691Z,4.50
2023-01-01T13:17:20.897Z,4.05
2023-01-01T13:20:26.200Z,3.72
2023-01-01T13:23:34.780Z,3.85
2023-01-01T13:26:37.514Z,3.45
2023-01-01T13:29:44.372Z,4.25
2023-01-01T13:33:21.524Z,3.90
2023-01-01T13:36:26.691Z,3.25
2023-01-01T13:40:12.892Z,4.00
2023-01-01T13:43:31.863Z,4.15
2023-01-01T13:47:01.132Z,3.85
2023-01-01T13:50:12.115Z,3.90
2023-01-01T13:53:39.372Z,3.88
2023-01-01T13:57:02.810Z,3.78
2023-01-01T14:03:17.416Z,4.22
2023-01-01T14:06:41.716Z,4.95
2023-01-01T14:09:43.276Z,3.78
2023-01-01T14:12:45.162Z,3.88
2023-01-01T14:15:55.470Z,3.80
2023-01-01T14:19:23.153Z,3.95
2023-01-01T14:22:24.719Z,3.95
2023-01-01T14:25:28.994Z,4.03
2023-01-01T14:28:37.434Z,3.83
2023-01-01T14:31:44.716Z,4.22
2023-01-01T14:34:46.369Z,3.70
2023-01-01T14:37:48.015Z,3.60
2023-01-01T14:41:00.118Z,4.00
2023-01-01T14:44:11.791Z,3.88
2023-01-01T14:47:29.304Z,4.10
2023-01-01T14:50:34.037Z,6.45
2023-01-01T14:53:35.731Z,6.43
2023-01-01T14:56:37.970Z,7.75
2023-01-01T14:59:47.501Z,7.68
2023-01-01T15:02:49.260Z,13.40
2023-01-01T15:06:02.235Z,9.23
2023-01-01T15:09:04.217Z,11.25
2023-01-01T15:12:06.019Z,10.00
2023-01-01T15:15:44.546Z,8.77
2023-01-01T15:18:53.250Z,5.80
2023-01-01T15:21:55.048Z,6.03
2023-01-01T15:24:58.473Z,5.22
2023-01-01T15:28:00.170Z,7.10
2023-01-01T15:31:01.885Z,6.10
2023-01-01T15:34:04.908Z,6.90
2023-01-01T15:37:28.141Z,8.98
2023-01-01T15:40:33.701Z,9.82
2023-01-01T15:43:35.329Z,9.68
2023-01-01T15:46:36.899Z,8.15
2023-01-01T15:49:38.485Z,8.35
2023-01-01T15:52:43.486Z,7.32
2023-01-01T15:55:51.631Z,6.75
2023-01-01T15:59:03.827Z,7.40
2023-01-01T16:02:19.824Z,7.05
2023-01-01T16:05:23.927Z,8.18
2023-01-01T16:08:25.762Z,6.97
2023-01-01T16:11:30.641Z,9.65
2023-01-01T16:14:32.258Z,9.90
2023-01-01T16:17:34.197Z,9.00
2023-01-01T16:20:35.729Z,8.55
2023-01-01T16:23:37.339Z,9.02
2023-01-01T16:26:38.803Z,17.02
2023-01-01T16:29:43.367Z,13.13
2023-01-01T16:32:45.731Z,11.25
2023-01-01T16:35:47.347Z,10.07
2023-01-01T16:38:49.107Z,8.65
2023-01-01T16:41:50.675Z,7.90
2023-01-01T16:44:52.203Z,9.45
2023-01-01T16:47:55.145Z,10.38
2023-01-01T16:50:56.631Z,8.73
2023-01-01T16:54:00.700Z,9.95
2023-01-01T17:00:04.126Z,7.53
2023-01-01T17:03:05.864Z,6.15
2023-01-01T17:06:09.807Z,6.93
2023-01-01T17:09:11.349Z,5.90
2023-01-01T17:12:13.156Z,5.80
2023-01-01T17:15:14.752Z,5.88
2023-01-01T17:18:16.278Z,5.72
2023-01-01T17:21:19.116Z,5.18
2023-01-01T17:24:21.386Z,5.20
2023-01-01T17:27:22.992Z,5.38
2023-01-01T17:30:26.408Z,4.80
2023-01-01T17:33:29.178Z,5.47
2023-01-01T17:36:30.720Z,5.50
2023-01-01T17:39:32.254Z,5.30
2023-01-01T17:42:34.703Z,6.13
2023-01-01T17:45:37.659Z,9.23
2023-01-01T17:48:51.673Z,8.02
2023-01-01T17:51:53.398Z,5.07
2023-01-01T17:54:54.907Z,5.05
2023-01-01T17:57:56.475Z,4.70
2023-01-01T18:01:11.486Z,5.38
2023-01-01T18:04:13.185Z,5.80
2023-01-01T18:07:14.753Z,6.53
2023-01-01T18:10:16.429Z,5.05
2023-01-01T18:13:20.115Z,6.67
2023-01-01T18:16:33.559Z,6.88
2023-01-01T18:19:38.935Z,9.05
2023-01-01T18:22:46.434Z,9.25
2023-01-01T18:25:54.048Z,7.90
2023-01-01T18:29:02.395Z,7.10
2023-01-01T18:32:11.485Z,6.25
2023-01-01T18:35:13.118Z,5.88
2023-01-01T18:38:18.936Z,6.78
2023-01-01T18:41:38.908Z,5.85
2023-01-01T18:44:41.280Z,5.53
2023-01-01T18:47:45.799Z,6.40
2023-01-01T18:50:47.375Z,6.50
2023-01-01T18:53:50.609Z,5.63
2023-01-01T18:57:02.825Z,6.40
2023-01-01T19:04:08.661Z,8.07
2023-01-01T19:07:26.840Z,8.70
2023-01-01T19:10:35.944Z,6.68
2023-01-01T19:13:42.246Z,7.88
2023-01-01T19:20:30.685Z,7.03
2023-01-01T19:23:32.449Z,4.75
2023-01-01T19:26:36.938Z,5.88
2023-01-01T19:29:42.587Z,5.57
2023-01-01T19:32:47.232Z,5.18
2023-01-01T19:35:48.800Z,5.32
2023-01-01T19:38:50.892Z,5.38
2023-01-01T19:41:52.434Z,4.30
2023-01-01T19:44:54.615Z,4.35
2023-01-01T19:47:56.101Z,4.30
2023-01-01T19:50:57.832Z,4.55
2023-01-01T19:53:59.463Z,4.70
2023-01-01T19:57:01.004Z,6.72
2023-01-01T20:00:02.619Z,13.27
2023-01-01T20:06:36.418Z,6.15
2023-01-01T20:09:38.109Z,6.30
2023-01-01T20:12:39.672Z,5.03
2023-01-01T20:15:46.527Z,5.95
2023-01-01T20:18:49.428Z,5.25
2023-01-01T20:22:09.564Z,5.72
2023-01-01T20:25:11.500Z,6.00
2023-01-01T20:28:31.640Z,5.15
2023-01-01T20:31:33.192Z,5.05
2023-01-01T20:34:34.885Z,4.72
2023-01-01T20:37:36.547Z,4.70
2023-01-01T20:40:38.232Z,4.28
2023-01-01T20:43:39.809Z,4.20
2023-01-01T20:46:42.336Z,3.92
2023-01-01T20:49:44.046Z,4.45
2023-01-01T20:52:45.759Z,3.60
2023-01-01T20:55:47.242Z,3.95
2023-01-01T20:58:54.535Z,3.63
2023-01-01T21:01:59.877Z,4.32
2023-01-01T21:05:01.907Z,4.03
2023-01-01T21:08:03.633Z,4.15
2023-01-01T21:11:07.489Z,4.43
2023-01-01T21:14:09.240Z,3.67
2023-01-01T21:17:20.927Z,4.15
2023-01-01T21:20:22.567Z,3.90
2023-01-01T21:23:29.043Z,4.03
2023-01-01T21:26:36.508Z,3.97
2023-01-01T21:29:44.408Z,3.90
2023-01-01T21:32:48.089Z,4.00
2023-01-01T21:35:49.598Z,4.28
2023-01-01T21:38:52.014Z,3.80
2023-01-01T21:41:59.474Z,4.03
2023-01-01T21:45:01.236Z,4.03
2023-01-01T21:48:16.083Z,3.88
2023-01-01T21:51:37.561Z,3.92
2023-01-01T21:54:39.516Z,4.18
2023-01-01T21:57:41.047Z,4.28
2023-01-01T22:00:42.943Z,3.95
2023-01-01T22:03:44.631Z,4.20
2023-01-01T22:07:17.842Z,3.88
2023-01-01T22:10:34.921Z,4.40
2023-01-01T22:13:36.459Z,5.45
2023-01-01T22:16:38.089Z,5.40
2023-01-01T22:19:39.755Z,4.05
2023-01-01T22:22:42.736Z,4.20
2023-01-01T22:25:44.317Z,3.50
2023-01-01T22:28:51.682Z,3.70
2023-01-01T22:32:01.491Z,4.28
2023-01-01T22:35:14.991Z,3.40
2023-01-01T22:38:20.866Z,4.10
2023-01-01T22:41:22.391Z,3.58
2023-01-01T22:44:26.920Z,3.97
2023-01-01T22:47:34.556Z,4.25
2023-01-01T22:50:36.767Z,3.38
2023-01-01T22:53:38.327Z,3.60
2023-01-01T22:56:39.838Z,3.58
2023-01-01T22:59:41.403Z,3.88
2023-01-01T23:02:43.602Z,4.00
2023-01-01T23:05:45.208Z,4.30
2023-01-01T23:08:47.083Z,4.40
2023-01-01T23:11:48.637Z,4.00
2023-01-01T23:15:08.735Z,3.70
2023-01-01T23:18:10.223Z,3.42
2023-01-01T23:21:19.994Z,3.80
2023-01-01T23:24:24.546Z,3.45
2023-01-01T23:27:26.657Z,3.28
2023-01-01T23:30:28.210Z,3.20
2023-01-01T23:33:30.884Z,3.35
2023-01-01T23:36:32.675Z,3.72
2023-01-01T23:39:34.220Z,3.47
2023-01-01T23:42:35.802Z,3.63
2023-01-01T23:45:38.144Z,4.13
2023-01-01T23:48:41.835Z,3.95
2023-01-01T23:51:43.366Z,3.67
2023-01-01T23:54:44.898Z,3.53
2023-01-01T23:57:46.491Z,3.63
